NCAR-RAP Real-Time Weather Data

Output produced by METARs form (19 October 2018  15:59 UTC)
found at http://weather.rap.ucar.edu/surface/
 
RJDT 191100Z 01008KT 330V050 9999 FEW030 16/09 Q1023
RJDT 191000Z 01010KT 330V070 9999 FEW035 16/09 Q1022
RJDT 190900Z 01009KT 330V050 9999 FEW035 16/09 Q1022
RJDT 190800Z 01011G24KT 320V050 9999 FEW035 17/09 Q1021
RJDT 190700Z 01010KT 310V050 9999 FEW030 BKN035 17/10 Q1021
RJDT 190600Z 02009KT 330V060 9999 FEW030 SCT035 17/10 Q1021
RJDT 190500Z 01012KT 320V050 9999 SCT030 SCT035 18/10 Q1021
RJDT 190400Z 35009KT 310V050 9999 SCT030 BKN040 18/11 Q1021
RJDT 190300Z 35011KT 310V030 9999 SCT030 BKN040 18/11 Q1021
RJDT 190200Z 34013KT 290V040 9999 FEW030 SCT040 18/11 Q1022
RJDT 190100Z 34015G26KT 310V020 9999 SCT025 18/10 Q1022
RJDT 190000Z 34013KT 290V020 9999 SCT025 17/10 Q1022
RJDT 182300Z 33012KT 300V010 9999 FEW020 16/10 Q1021
RJDT 182230Z 34011KT 290V360 9999 FEW020 SCT040 BKN060 15/10 Q1020
RJDT 181100Z 31003KT 270V340 9999 FEW030 SCT050 15/10 Q1017
RJDT 181000Z 29004KT 9999 FEW030 16/10 Q1017
RJDT 180900Z 32006KT 9999 FEW030 17/09 Q1016
RJDT 180800Z 33008KT 9999 FEW030 17/09 Q1016
RJDT 180700Z 33006KT 280V020 9999 SCT030 SCT040 18/11 Q1016
RJDT 180600Z 04005KT 360V080 9999 FEW025 BKN030 18/12 Q1015
RJDT 180500Z 03003KT 330V070 9999 FEW025 BKN030 20/13 Q1015
RJDT 180400Z 04005KT 340V120 9999 FEW025 SCT030 BKN050 19/12 Q1015
RJDT 180300Z 07006KT 330V110 9999 FEW025 BKN030 18/12 Q1016
RJDT 180200Z 06005KT 010V100 9999 FEW030 SCT035 19/12 Q1016
RJDT 180100Z 03005KT 330V070 9999 FEW035 18/12 Q1016
RJDT 180000Z 35004KT 300V030 9999 FEW030 17/11 Q1016
RJDT 172300Z 33004KT 9999 FEW030 16/13 Q1016
RJDT 172230Z 34004KT 9999 FEW030 15/12 Q1016
RJDT 171100Z 31003KT 9999 FEW025 BKN/// 16/12 Q1014
RJDT 171000Z 34003KT 280V010 9999 FEW025 BKN/// 17/13 Q1014
RJDT 170900Z 01003KT 9999 FEW025 SCT030 BKN/// 18/12 Q1013
RJDT 170800Z 01003KT 330V050 9999 FEW025 BKN030 BKN/// 19/12 Q1013
RJDT 170700Z 33003KT 270V050 9999 FEW025 SCT030 BKN/// 19/13 Q1013
RJDT 170600Z 32006KT 260V360 9999 FEW020 SCT025 BKN/// 20/12 Q1013
RJDT 170500Z 01005KT 300V070 9999 FEW020 BKN025 19/13 Q1013
RJDT 170400Z 06007KT 020V120 9999 FEW020 BKN025 BKN/// 19/13 Q1013